Time;durP1;ratioP1;P1;durP2;ratioP2;P2;SDS_P1;SDS_P2;PMS_P1;PMS_P2;Temp;Humidity;BMP_temperature;BMP_pressure;BME280_temperature;BME280_humidity;BME280_pressure;Samples;Min_cycle;Max_cycle;Signal;HPM_P1;HPM_P2
2022/10/12 00:01:08;;;;;;;44.07;25.30;;;15.10;99.90;;;15.34;74.73;95548.97;5025379;28;20476;-57
2022/10/12 00:03:35;;;;;;;34.80;25.00;;;15.10;99.90;;;15.34;74.90;95543.69;5024866;28;20503;-57
2022/10/12 00:06:05;;;;;;;38.00;24.57;;;15.10;99.90;;;15.33;74.88;95539.34;5024576;28;20492;-57
2022/10/12 00:08:32;;;;;;;38.27;25.40;;;15.10;99.90;;;15.32;74.77;95543.00;5024971;28;20518;-57
2022/10/12 00:10:59;;;;;;;39.67;25.50;;;15.10;99.90;;;15.31;74.92;95538.69;5024885;28;20532;-57
2022/10/12 00:13:28;;;;;;;39.37;26.20;;;15.10;99.90;;;15.31;74.64;95537.84;5024880;28;20562;-57
2022/10/12 00:16:12;;;;;;;37.10;25.00;;;15.10;99.90;;;15.30;74.70;95546.78;5024582;28;20472;-56
2022/10/12 00:18:39;;;;;;;46.23;25.33;;;15.10;99.90;;;15.28;74.69;95533.69;5022538;28;20771;-55
2022/10/12 00:21:08;;;;;;;37.47;25.90;;;15.10;99.90;;;15.29;74.31;95534.50;5024365;28;20556;-53
2022/10/12 00:23:36;;;;;;;40.83;25.83;;;15.10;99.90;;;15.28;74.80;95535.50;5020780;28;20471;-54
2022/10/12 00:26:04;;;;;;;37.53;25.87;;;15.10;99.90;;;15.27;74.59;95532.00;5024389;28;20511;-55
2022/10/12 00:28:32;;;;;;;42.90;26.43;;;15.10;99.90;;;15.28;74.65;95538.16;5025037;28;20460;-58
2022/10/12 00:31:00;;;;;;;37.23;25.63;;;15.10;99.90;;;15.28;74.70;95538.16;5027569;28;20468;-55
2022/10/12 00:33:28;;;;;;;36.40;24.10;;;15.10;99.90;;;15.27;74.40;95526.72;5028664;28;20460;-56
2022/10/12 00:35:55;;;;;;;41.40;27.00;;;15.00;99.90;;;15.27;74.60;95532.00;5028608;28;20896;-55
2022/10/12 00:38:22;;;;;;;38.83;25.27;;;15.00;99.90;;;15.26;74.75;95533.00;5025945;28;21027;-56
2022/10/12 00:40:50;;;;;;;37.13;24.60;;;15.00;99.90;;;15.28;74.84;95538.16;5028704;28;20472;-55
2022/10/12 00:43:28;;;;;;;38.30;26.47;;;15.00;99.90;;;15.28;74.90;95532.88;5028296;28;20459;-57
2022/10/12 00:45:57;;;;;;;38.83;25.63;;;15.10;99.90;;;15.27;75.04;95531.19;5025926;28;20495;-57
2022/10/12 00:48:24;;;;;;;34.93;23.73;;;15.10;99.90;;;15.27;74.87;95528.53;5028289;28;20502;-55
2022/10/12 00:50:52;;;;;;;37.47;25.17;;;15.00;99.90;;;15.27;74.28;95532.00;5024717;28;20488;-57
2022/10/12 00:53:21;;;;;;;48.77;25.90;;;15.00;99.90;;;15.25;74.69;95526.03;5029043;28;20875;-56
2022/10/12 00:55:59;;;;;;;31.23;24.20;;;15.00;99.90;;;15.25;74.48;95526.03;5028268;28;20473;-59
2022/10/12 00:58:26;;;;;;;36.93;23.60;;;15.00;99.90;;;15.24;74.85;95525.22;5026302;28;20472;-58
2022/10/12 01:00:53;;;;;;;37.27;23.77;;;15.00;99.90;;;15.23;74.90;95533.31;5028480;28;20473;-57
2022/10/12 01:03:22;;;;;;;42.13;23.13;;;15.00;99.90;;;15.23;74.73;95528.00;5024486;28;20564;-53
2022/10/12 01:05:50;;;;;;;38.90;24.17;;;15.00;99.90;;;15.22;74.76;95534.28;5027809;28;20496;-55
2022/10/12 01:08:17;;;;;;;39.87;24.30;;;15.00;99.90;;;15.22;74.78;95526.34;5027967;28;20457;-58
2022/10/12 01:10:44;;;;;;;35.10;23.60;;;15.00;99.90;;;15.22;74.73;95531.63;5025367;28;20464;-56
2022/10/12 01:13:12;;;;;;;34.50;23.40;;;15.00;99.90;;;15.21;74.49;95527.31;5027832;28;20979;-56
2022/10/12 01:15:44;;;;;;;33.07;23.73;;;15.00;99.90;;;15.20;74.61;95530.97;5028118;28;20499;-54
2022/10/12 01:18:15;;;;;;;39.50;25.37;;;15.00;99.90;;;15.19;74.63;95531.94;5024738;28;20452;-55
2022/10/12 01:21:07;;;;;;;38.53;24.20;;;15.00;99.90;;;15.19;74.74;95531.94;5028352;28;20464;-56
2022/10/12 01:24:12;;;;;;;36.47;23.93;;;15.00;99.90;;;15.18;74.53;95532.91;5026703;28;20453;-56
2022/10/12 01:27:18;;;;;;;33.33;22.77;;;15.00;99.90;;;15.17;74.69;95526.78;5026818;28;21334;-57
2022/10/12 01:30:22;;;;;;;34.80;22.70;;;15.00;99.90;;;15.16;74.80;95521.66;5024428;28;20854;-56
2022/10/12 01:33:14;;;;;;;44.80;23.77;;;14.90;99.90;;;15.14;75.06;95521.81;5026268;28;20528;-57
2022/10/12 01:35:52;;;;;;;32.77;24.33;;;14.90;99.90;;;15.14;74.80;95528.94;5027520;28;20851;-55
2022/10/12 01:38:32;;;;;;;34.27;23.13;;;14.90;99.90;;;15.13;74.89;95527.25;5027125;28;20976;-54
2022/10/12 01:41:03;;;;;;;33.40;24.40;;;14.90;99.90;;;15.12;74.77;95525.56;5025277;28;20503;-56
2022/10/12 01:43:34;;;;;;;35.13;24.10;;;14.90;99.90;;;15.11;74.82;95524.75;5026784;28;20524;-55
2022/10/12 01:46:41;;;;;;;42.47;24.37;;;14.90;99.90;;;15.09;74.81;95523.22;5027508;28;20507;-57
2022/10/12 01:49:09;;;;;;;39.67;23.60;;;14.90;99.90;;;15.08;74.88;95529.53;5023794;28;20484;-57
2022/10/12 01:51:42;;;;;;;34.27;23.17;;;14.90;99.90;;;15.06;75.05;95530.50;5027439;28;20522;-57
2022/10/12 01:54:12;;;;;;;37.17;26.50;;;14.90;99.90;;;15.05;75.12;95528.84;5027274;28;20510;-56
2022/10/12 01:56:45;;;;;;;42.97;27.97;;;14.90;99.90;;;15.04;75.00;95527.19;5027217;28;20453;-55
2022/10/12 01:59:17;;;;;;;39.20;25.50;;;14.80;99.90;;;15.05;75.10;95528.00;5026657;28;20468;-55
2022/10/12 02:01:50;;;;;;;40.60;24.47;;;14.80;99.90;;;15.04;75.30;95527.19;5026674;28;20937;-56
2022/10/12 02:04:21;;;;;;;38.53;25.17;;;14.80;99.90;;;15.03;75.13;95525.50;5027099;28;20951;-56
2022/10/12 02:06:51;;;;;;;35.50;24.90;;;14.80;99.90;;;15.03;75.11;95536.09;5026792;28;20546;-56
2022/10/12 02:09:20;;;;;;;43.50;26.73;;;14.80;99.90;;;15.04;75.47;95532.47;5026492;28;20464;-57
2022/10/12 02:11:48;;;;;;;36.57;24.80;;;14.80;99.90;;;15.04;75.30;95537.78;5026822;28;20469;-56
2022/10/12 02:14:17;;;;;;;36.43;25.07;;;14.80;99.90;;;15.05;75.53;95543.91;5026710;28;20476;-58
2022/10/12 02:16:49;;;;;;;32.80;22.10;;;14.80;99.90;;;15.06;75.58;95546.41;5027019;28;20518;-55
2022/10/12 02:19:20;;;;;;;37.67;22.93;;;14.80;99.90;;;15.05;75.31;95554.50;5023572;28;20432;-56
2022/10/12 02:21:47;;;;;;;34.80;23.80;;;14.90;99.90;;;15.05;75.44;95547.38;5027189;28;20448;-57
2022/10/12 02:24:14;;;;;;;35.17;24.87;;;14.90;99.90;;;15.05;75.34;95544.72;5026451;28;20472;-56
2022/10/12 02:26:42;;;;;;;43.00;24.37;;;14.90;99.90;;;15.06;75.32;95548.22;5026497;28;20488;-54
2022/10/12 02:29:13;;;;;;;37.30;24.10;;;14.80;99.90;;;15.06;75.50;95556.19;5026494;28;20880;-57
2022/10/12 02:31:45;;;;;;;32.90;22.40;;;14.90;99.90;;;15.06;75.57;95556.19;5026635;28;20926;-56
2022/10/12 02:34:16;;;;;;;38.70;23.07;;;14.80;99.90;;;15.06;75.62;95557.00;5026174;28;21435;-54
2022/10/12 02:36:46;;;;;;;35.00;25.60;;;14.80;99.90;;;15.06;75.36;95554.34;5026326;28;20460;-56
2022/10/12 02:39:15;;;;;;;36.27;23.80;;;14.90;99.90;;;15.06;75.49;95545.56;5026387;28;20460;-57
2022/10/12 02:41:46;;;;;;;37.87;24.37;;;14.80;99.90;;;15.05;75.40;95542.06;5026173;28;21031;-54
2022/10/12 02:44:16;;;;;;;36.90;23.63;;;14.80;99.90;;;15.05;75.79;95550.03;5022942;28;20448;-56
2022/10/12 02:46:43;;;;;;;34.17;22.87;;;14.90;99.90;;;15.04;75.68;95553.69;5024584;28;20578;-61
2022/10/12 02:49:10;;;;;;;44.63;24.60;;;14.90;99.90;;;15.05;75.52;95541.25;5025536;28;20867;-57
2022/10/12 02:51:39;;;;;;;40.37;25.10;;;14.80;99.90;;;15.04;75.52;95551.03;5027194;28;20449;-61
2022/10/12 02:54:06;;;;;;;32.77;22.77;;;14.90;99.90;;;15.05;75.68;95547.38;5025407;28;20457;-54
2022/10/12 02:56:33;;;;;;;34.47;23.57;;;14.80;99.90;;;15.04;75.63;95558.97;5025824;28;20449;-57
2022/10/12 02:59:01;;;;;;;39.37;24.00;;;14.90;99.90;;;15.04;75.70;95552.81;5025311;28;20472;-56
2022/10/12 03:01:28;;;;;;;38.00;23.00;;;14.80;99.90;;;15.04;75.71;95543.09;5025787;28;20453;-54
2022/10/12 03:03:55;;;;;;;34.63;23.77;;;14.80;99.90;;;15.04;75.74;95552.81;5025748;28;20861;-55
2022/10/12 03:06:22;;;;;;;34.87;25.13;;;14.80;99.90;;;15.00;75.71;95539.06;5021838;28;21017;-56
2022/10/12 03:08:52;;;;;;;35.83;25.13;;;14.80;99.90;;;15.03;75.60;95552.00;5025501;28;20960;-57
2022/10/12 03:11:19;;;;;;;39.63;23.70;;;14.80;99.90;;;15.03;75.73;95544.06;5025922;28;20508;-55
2022/10/12 03:13:46;;;;;;;43.50;23.87;;;14.80;99.90;;;15.03;75.40;95540.59;5025905;28;20531;-57
2022/10/12 03:16:13;;;;;;;44.33;24.57;;;14.80;99.90;;;15.00;75.49;95536.41;5025663;28;20534;-56
2022/10/12 03:18:41;;;;;;;41.67;22.40;;;14.80;99.90;;;15.00;75.68;95539.06;5025169;28;20511;-56
2022/10/12 03:21:09;;;;;;;35.23;23.13;;;14.80;99.90;;;15.00;75.54;95543.53;5025179;28;21008;-57
2022/10/12 03:23:36;;;;;;;40.93;23.80;;;14.80;99.90;;;14.99;75.42;95541.84;5025222;28;20476;-56
2022/10/12 03:26:05;;;;;;;32.70;20.60;;;14.80;99.90;;;14.98;75.76;95534.88;5025314;28;20985;-54
2022/10/12 03:28:33;;;;;;;36.57;23.30;;;14.80;99.90;;;14.97;75.64;95544.66;5024979;28;20492;-56
2022/10/12 03:31:00;;;;;;;37.90;22.20;;;14.80;99.90;;;14.94;75.66;95544.13;5025245;28;20651;-57
2022/10/12 03:33:27;;;;;;;34.43;22.80;;;14.70;99.90;;;14.92;75.53;95549.59;5025095;28;20463;-55
2022/10/12 03:35:55;;;;;;;34.70;23.03;;;14.70;99.90;;;14.90;75.93;95556.81;5025348;28;20472;-56
2022/10/12 03:38:22;;;;;;;29.80;21.13;;;14.70;99.90;;;14.87;75.81;95547.38;5025019;28;20833;-57
2022/10/12 03:40:49;;;;;;;35.00;23.40;;;14.70;99.90;;;14.86;75.99;95550.19;5025196;28;20484;-57
2022/10/12 03:43:18;;;;;;;36.47;21.97;;;14.60;99.90;;;14.84;75.86;95552.97;5024925;28;20449;-56
2022/10/12 03:45:45;;;;;;;33.47;23.00;;;14.60;99.90;;;14.84;75.89;95557.41;5021774;28;20469;-55
2022/10/12 03:48:13;;;;;;;37.33;21.00;;;14.60;99.90;;;14.82;76.05;95548.81;5025232;28;20860;-55
2022/10/12 03:50:41;;;;;;;31.03;22.47;;;14.60;99.90;;;14.81;76.15;95547.97;5025257;28;20475;-56
2022/10/12 03:53:10;;;;;;;31.50;22.43;;;14.60;99.90;;;14.80;76.32;95548.13;5023908;28;20941;-54
2022/10/12 03:55:38;;;;;;;31.87;21.03;;;14.60;99.90;;;14.78;76.30;95547.41;5025364;28;20477;-55
2022/10/12 03:58:05;;;;;;;35.20;23.67;;;14.60;99.90;;;14.78;76.35;95552.72;5024815;28;20459;-56
2022/10/12 04:00:33;;;;;;;36.80;23.27;;;14.60;99.90;;;14.78;76.12;95550.06;5024549;28;20570;-57
2022/10/12 04:03:01;;;;;;;40.00;24.10;;;14.60;99.90;;;14.77;76.30;95551.06;5024888;28;21107;-58
2022/10/12 04:05:28;;;;;;;33.70;23.37;;;14.60;99.90;;;14.76;76.27;95546.75;5023952;28;20473;-57
2022/10/12 04:07:56;;;;;;;46.50;25.30;;;14.50;99.90;;;14.74;76.48;95548.72;5024287;28;20492;-58
2022/10/12 04:10:23;;;;;;;34.97;23.63;;;14.60;99.90;;;14.74;76.44;95556.66;5024516;28;20948;-58
2022/10/12 04:12:50;;;;;;;35.50;23.60;;;14.60;99.90;;;14.73;76.40;95558.47;5025115;28;20445;-56
2022/10/12 04:15:18;;;;;;;41.73;23.23;;;14.50;99.90;;;14.72;76.36;95555.97;5024399;28;20469;-56
2022/10/12 04:17:47;;;;;;;34.73;23.50;;;14.50;99.90;;;14.70;76.58;95554.31;5024974;28;20453;-54
2022/10/12 04:20:14;;;;;;;40.53;25.73;;;14.50;99.90;;;14.72;76.59;95559.47;5025033;28;20468;-55
2022/10/12 04:22:42;;;;;;;35.90;23.17;;;14.50;99.90;;;14.72;76.48;95563.91;5024737;28;20970;-56
2022/10/12 04:25:11;;;;;;;35.83;24.10;;;14.50;99.90;;;14.73;76.42;95560.28;5024068;28;20477;-58
2022/10/12 04:27:39;;;;;;;33.23;23.87;;;14.50;99.90;;;14.74;76.50;95564.59;5024620;28;21024;-56
2022/10/12 04:30:08;;;;;;;46.27;25.30;;;14.50;99.90;;;14.75;76.63;95558.31;5023958;28;20558;-56
2022/10/12 04:32:35;;;;;;;31.27;22.70;;;14.50;99.90;;;14.74;76.38;95560.13;5024111;28;20896;-56
2022/10/12 04:35:04;;;;;;;35.53;23.70;;;14.60;99.90;;;14.76;76.42;95566.09;5023722;28;20554;-56
2022/10/12 04:37:32;;;;;;;43.93;25.10;;;14.60;99.90;;;14.77;76.56;95564.31;5021365;28;20826;-56
2022/10/12 04:39:59;;;;;;;37.60;23.80;;;14.50;99.90;;;14.78;76.22;95573.91;5024538;28;20491;-57
2022/10/12 04:42:26;;;;;;;34.93;23.30;;;14.60;99.90;;;14.79;76.54;95568.47;5025194;28;20449;-56
2022/10/12 04:44:54;;;;;;;40.27;23.67;;;14.60;99.90;;;14.81;76.39;95578.91;5018586;28;20595;-57
2022/10/12 04:47:21;;;;;;;44.10;26.07;;;14.60;99.90;;;14.82;76.46;95578.75;5023427;28;20492;-57
2022/10/12 04:49:49;;;;;;;56.90;28.07;;;14.60;99.90;;;14.83;76.34;95575.13;5024269;28;20913;-55
2022/10/12 04:52:17;;;;;;;45.30;26.50;;;14.60;99.90;;;14.84;76.07;95576.81;5025656;28;20444;-56
2022/10/12 04:54:45;;;;;;;38.83;25.20;;;14.70;99.90;;;14.85;76.01;95569.69;5023032;28;21697;-57
2022/10/12 04:57:12;;;;;;;40.53;24.87;;;14.60;99.90;;;14.84;76.03;95584.75;5024308;28;20543;-56
2022/10/12 04:59:40;;;;;;;43.23;25.00;;;14.60;99.90;;;14.83;76.21;95577.78;5028611;28;21185;-57
2022/10/12 05:02:07;;;;;;;43.33;24.07;;;14.60;99.90;;;14.83;75.92;95576.97;5023703;28;20448;-55
2022/10/12 05:04:34;;;;;;;37.03;25.00;;;14.60;99.90;;;14.83;76.00;95587.56;5024656;28;20512;-55
2022/10/12 05:07:02;;;;;;;38.37;25.40;;;14.60;99.90;;;14.84;76.00;95594.50;5024968;28;20496;-54
2022/10/12 05:09:30;;;;;;;43.63;25.60;;;14.60;99.90;;;14.83;75.97;95587.56;5024389;28;20492;-57
2022/10/12 05:11:58;;;;;;;49.13;23.53;;;14.60;99.90;;;14.83;75.99;95587.56;5024023;28;20452;-61
2022/10/12 05:14:25;;;;;;;36.83;24.20;;;14.60;99.90;;;14.83;76.02;95593.66;5023569;28;20476;-55
2022/10/12 05:16:53;;;;;;;34.67;23.87;;;14.60;99.90;;;14.83;75.89;95595.50;5026782;28;20463;-58
2022/10/12 05:19:20;;;;;;;39.87;23.20;;;14.70;99.90;;;14.83;76.06;95598.16;5028509;28;21169;-55
2022/10/12 05:21:48;;;;;;;37.20;24.10;;;14.60;99.90;;;14.83;75.95;95600.78;5028276;28;20483;-55
2022/10/12 05:24:15;;;;;;;46.50;25.23;;;14.60;99.90;;;14.84;76.16;95600.66;5028505;28;20836;-55
2022/10/12 05:26:44;;;;;;;39.43;23.37;;;14.60;99.90;;;14.84;76.00;95600.66;5032492;28;20457;-55
2022/10/12 05:29:11;;;;;;;40.60;23.90;;;14.60;99.90;;;14.85;75.91;95606.78;5028001;28;20492;-57
2022/10/12 05:31:39;;;;;;;44.10;25.87;;;14.70;99.90;;;14.85;76.02;95607.59;5027449;28;20460;-56
2022/10/12 05:34:06;;;;;;;34.67;22.80;;;14.70;99.90;;;14.86;75.97;95609.28;5027851;28;20815;-57
2022/10/12 05:36:33;;;;;;;42.53;23.87;;;14.70;99.90;;;14.88;76.21;95606.47;5027922;28;20456;-56
2022/10/12 05:39:01;;;;;;;51.23;23.77;;;14.70;99.90;;;14.88;75.93;95609.94;5028350;28;20837;-56
2022/10/12 05:41:28;;;;;;;38.63;25.23;;;14.70;99.90;;;14.91;76.04;95618.59;5027897;28;20495;-58
2022/10/12 05:43:57;;;;;;;37.43;23.20;;;14.70;99.90;;;14.92;75.91;95607.84;5028007;28;20455;-55
2022/10/12 05:46:25;;;;;;;47.77;23.70;;;14.70;99.90;;;14.95;76.05;95614.66;5027305;28;20555;-56
2022/10/12 05:48:52;;;;;;;33.93;22.60;;;14.70;99.90;;;14.97;76.07;95620.66;5027310;28;20970;-57
2022/10/12 05:51:19;;;;;;;42.20;25.83;;;14.80;99.90;;;14.98;75.71;95622.31;5027268;28;20557;-56
2022/10/12 05:53:47;;;;;;;39.10;23.83;;;14.80;99.90;;;15.00;75.66;95628.31;5027712;28;20464;-55
2022/10/12 05:56:15;;;;;;;43.70;23.27;;;14.80;99.90;;;15.01;75.72;95630.81;5027680;28;20855;-56
2022/10/12 05:58:42;;;;;;;41.20;24.50;;;14.80;99.90;;;15.03;75.79;95628.84;5027337;28;20456;-56
2022/10/12 06:01:13;;;;;;;41.60;24.17;;;14.80;99.90;;;15.04;75.72;95632.31;5027487;28;20477;-55
2022/10/12 06:03:40;;;;;;;48.03;24.73;;;14.90;99.90;;;15.06;75.57;95633.84;5027890;28;20460;-56
2022/10/12 06:06:08;;;;;;;41.30;23.80;;;14.90;99.90;;;15.06;75.76;95639.13;5027622;28;20477;-57
2022/10/12 06:08:38;;;;;;;44.50;23.77;;;14.90;99.90;;;15.06;76.00;95639.13;5028141;28;20493;-56
2022/10/12 06:11:06;;;;;;;41.73;23.70;;;14.90;99.90;;;15.07;75.65;95642.59;5028099;28;20472;-57
2022/10/12 06:13:33;;;;;;;36.20;24.40;;;14.90;99.90;;;15.09;75.73;95650.41;5027333;28;20457;-57
2022/10/12 06:16:00;;;;;;;39.53;23.83;;;14.90;99.90;;;15.11;75.81;95654.59;5027737;28;20487;-56
2022/10/12 06:18:29;;;;;;;41.43;24.50;;;14.90;99.90;;;15.11;75.58;95653.75;5027326;28;20476;-56
2022/10/12 06:20:56;;;;;;;48.50;26.33;;;14.90;99.90;;;15.13;75.28;95646.50;5027840;28;20848;-60
2022/10/12 06:23:24;;;;;;;49.23;25.93;;;14.90;99.90;;;15.16;75.65;95651.50;5027451;28;20456;-55
2022/10/12 06:25:52;;;;;;;37.73;21.70;;;14.90;99.90;;;15.16;75.28;95654.97;5027358;28;20506;-56
2022/10/12 06:28:20;;;;;;;55.70;25.60;;;15.00;99.90;;;15.19;75.48;95657.31;5026068;28;20496;-55
2022/10/12 06:30:52;;;;;;;36.23;23.03;;;15.00;99.90;;;15.20;75.58;95660.81;5026800;28;20476;-56
2022/10/12 06:33:19;;;;;;;50.70;23.30;;;15.00;99.90;;;15.24;75.28;95656.88;5026459;28;20878;-56
2022/10/12 06:35:48;;;;;;;38.10;24.70;;;15.00;99.90;;;15.22;75.34;95658.84;5026591;28;20534;-56
2022/10/12 06:38:15;;;;;;;39.33;25.10;;;15.00;99.90;;;15.30;75.52;95661.56;5027190;28;20468;-55
2022/10/12 06:40:43;;;;;;;38.73;24.20;;;15.10;99.90;;;15.35;75.21;95663.78;5026827;28;20465;-55
2022/10/12 06:43:10;;;;;;;37.50;23.77;;;15.10;99.90;;;15.40;75.23;95667.66;5026918;28;20901;-57
2022/10/12 06:45:39;;;;;;;39.03;23.07;;;15.10;99.90;;;15.44;74.82;95664.72;5026849;28;20476;-55
2022/10/12 06:48:07;;;;;;;37.57;22.53;;;15.20;99.90;;;15.48;74.76;95671.38;5026691;28;21016;-57
2022/10/12 06:50:34;;;;;;;40.17;23.30;;;15.20;99.90;;;15.54;74.86;95666.31;5026771;28;20552;-55
2022/10/12 06:53:03;;;;;;;44.83;23.00;;;15.30;99.90;;;15.63;74.61;95669.03;5026135;28;20464;-55
2022/10/12 06:55:30;;;;;;;35.13;23.77;;;15.40;99.90;;;15.69;74.28;95666.63;5026692;28;20523;-58
2022/10/12 06:57:58;;;;;;;34.47;22.70;;;15.40;99.90;;;15.76;73.81;95672.97;5027173;28;20482;-56
2022/10/12 07:00:25;;;;;;;39.83;23.80;;;15.50;99.90;;;15.81;73.59;95669.06;5027020;28;20492;-57
2022/10/12 07:02:53;;;;;;;43.30;24.50;;;15.60;99.90;;;15.84;73.47;95674.88;5026575;28;20484;-58
2022/10/12 07:05:21;;;;;;;44.23;24.27;;;15.60;99.90;;;15.88;73.32;95670.09;5026759;28;20488;-55
2022/10/12 07:07:48;;;;;;;39.60;23.77;;;15.70;99.90;;;15.91;73.05;95683.06;5026873;28;20965;-57
2022/10/12 07:10:17;;;;;;;35.77;20.93;;;15.70;99.90;;;15.94;72.96;95674.78;5026841;28;20542;-58
2022/10/12 07:12:45;;;;;;;37.80;22.23;;;15.70;99.90;;;15.95;72.86;95679.94;5026337;28;20452;-60
2022/10/12 07:15:12;;;;;;;36.50;21.43;;;15.80;99.90;;;15.99;72.63;95672.53;5026681;28;20495;-57
2022/10/12 07:17:39;;;;;;;45.00;22.10;;;15.80;99.90;;;16.01;72.60;95675.88;5026565;28;20448;-52
2022/10/12 07:20:08;;;;;;;33.13;19.73;;;15.80;99.90;;;16.05;72.27;95676.38;5026872;28;20527;-57
2022/10/12 07:22:35;;;;;;;29.00;19.33;;;15.80;99.90;;;16.05;71.85;95674.59;5026592;28;20479;-59
2022/10/12 07:25:03;;;;;;;37.43;18.87;;;15.80;99.90;;;16.07;71.93;95672.59;5026781;28;20861;-55
2022/10/12 07:27:31;;;;;;;33.40;20.37;;;15.90;99.90;;;16.10;71.82;95682.91;5026268;28;20854;-56
2022/10/12 07:29:59;;;;;;;43.03;21.30;;;15.90;99.90;;;16.13;71.82;95682.59;5026292;28;20984;-57
2022/10/12 07:32:26;;;;;;;35.50;21.27;;;15.90;99.90;;;16.17;71.90;95683.09;5025104;28;20453;-57
2022/10/12 07:34:54;;;;;;;31.43;18.83;;;16.00;99.90;;;16.20;71.53;95680.16;5025959;28;20476;-57
2022/10/12 07:37:21;;;;;;;30.53;18.90;;;16.00;99.90;;;16.25;71.71;95679.69;5025610;28;20453;-55
2022/10/12 07:39:48;;;;;;;24.80;17.70;;;16.00;99.90;;;16.29;71.21;95683.69;5022029;28;20471;-56
2022/10/12 07:42:16;;;;;;;32.20;18.03;;;16.00;99.90;;;16.33;70.87;95682.41;5025803;28;20535;-57
2022/10/12 07:44:45;;;;;;;32.17;18.53;;;16.10;99.90;;;16.37;70.89;95683.75;5025120;28;20560;-56
2022/10/12 07:47:12;;;;;;;26.90;18.40;;;16.10;99.90;;;16.40;70.83;95688.75;5021957;28;20480;-57
2022/10/12 07:49:39;;;;;;;30.30;18.63;;;16.20;99.90;;;16.43;70.70;95683.13;5025501;28;20848;-56
2022/10/12 07:52:07;;;;;;;38.83;21.27;;;16.20;99.90;;;16.46;70.71;95677.50;5025778;28;20448;-56
2022/10/12 07:54:34;;;;;;;32.00;18.77;;;16.20;99.90;;;16.50;70.67;95686.00;5026158;28;20477;-58
2022/10/12 07:57:01;;;;;;;42.03;21.77;;;16.30;99.90;;;16.54;70.72;95681.22;5025705;28;20466;-58
2022/10/12 07:59:29;;;;;;;30.10;19.17;;;16.30;99.90;;;16.58;70.64;95685.22;5025458;28;20480;-55
2022/10/12 08:01:57;;;;;;;29.57;19.97;;;16.30;99.90;;;16.62;70.64;95692.72;5025560;28;21030;-57
2022/10/12 08:04:25;;;;;;;30.13;18.10;;;16.40;99.90;;;16.67;70.13;95686.94;5025182;28;20480;-59
2022/10/12 08:06:52;;;;;;;31.40;18.30;;;16.40;99.90;;;16.72;69.95;95687.31;5025711;28;20459;-55
2022/10/12 08:09:20;;;;;;;35.97;18.23;;;16.50;99.90;;;16.74;70.40;95685.31;5025230;28;20964;-57
2022/10/12 08:11:48;;;;;;;40.07;19.67;;;16.50;99.90;;;16.79;70.19;95682.19;5025320;28;20534;-58
2022/10/12 08:14:16;;;;;;;32.27;18.07;;;16.50;99.90;;;16.80;69.79;95684.69;5024926;28;20452;-56
2022/10/12 08:16:44;;;;;;;29.80;19.80;;;16.60;99.90;;;16.84;69.83;95685.22;5025256;28;20463;-55
2022/10/12 08:19:12;;;;;;;29.80;19.63;;;16.60;99.90;;;16.86;69.36;95685.91;5025007;28;20460;-55
2022/10/12 08:21:41;;;;;;;34.03;18.80;;;16.60;99.90;;;16.88;69.32;95685.75;5025530;28;20853;-55
2022/10/12 08:24:09;;;;;;;27.70;18.73;;;16.60;99.90;;;16.90;69.13;95686.41;5024924;28;20511;-58
2022/10/12 08:26:36;;;;;;;26.10;18.70;;;16.60;99.90;;;16.91;69.15;95685.44;5024991;28;20471;-57
2022/10/12 08:29:04;;;;;;;31.30;20.10;;;16.70;99.90;;;16.92;69.37;95684.44;5025198;28;20495;-58
2022/10/12 08:31:32;;;;;;;35.93;21.07;;;16.70;99.90;;;16.95;69.31;95684.13;5025439;28;20499;-56
2022/10/12 08:33:59;;;;;;;37.73;19.63;;;16.70;99.90;;;16.97;68.89;95688.28;5028918;28;20810;-55
2022/10/12 08:36:29;;;;;;;37.13;18.77;;;16.70;99.90;;;16.99;69.27;95683.66;5024972;28;21035;-55
2022/10/12 08:38:56;;;;;;;47.20;20.57;;;16.70;99.90;;;17.05;68.82;95681.34;5027909;28;20448;-56
2022/10/12 08:41:33;;;;;;;38.57;22.93;;;16.80;99.90;;;17.11;69.15;95683.38;5024893;28;20479;-55
2022/10/12 08:44:17;;;;;;;34.93;21.30;;;16.80;99.90;;;17.12;68.35;95677.88;5024866;28;20984;-56
2022/10/12 08:46:45;;;;;;;29.47;18.83;;;16.80;99.90;;;17.14;68.38;95675.06;5025063;28;20456;-55
2022/10/12 08:49:15;;;;;;;32.67;19.43;;;16.90;99.90;;;17.16;68.14;95676.56;5024885;28;20532;-56
2022/10/12 08:51:48;;;;;;;34.20;21.03;;;16.90;99.90;;;17.18;68.44;95677.25;5026521;28;20502;-57
2022/10/12 08:54:18;;;;;;;41.03;19.90;;;16.90;99.90;;;17.20;68.20;95683.22;5025132;28;20459;-56
2022/10/12 08:56:45;;;;;;;35.87;21.17;;;16.90;99.90;;;17.26;68.24;95667.59;5026729;28;20452;-57
2022/10/12 08:59:13;;;;;;;35.97;21.63;;;17.00;99.90;;;17.26;67.89;95673.78;5028212;28;20504;-56
2022/10/12 09:01:53;;;;;;;33.87;19.17;;;17.00;99.90;;;17.29;68.06;95677.91;5025021;28;20464;-57
2022/10/12 09:04:36;;;;;;;38.00;20.47;;;17.00;99.90;;;17.34;68.47;95672.97;5028192;28;20444;-57
2022/10/12 09:07:09;;;;;;;37.00;18.47;;;17.10;99.90;;;17.42;68.05;95672.16;5028727;28;20523;-56
2022/10/12 09:09:46;;;;;;;31.00;20.70;;;17.10;99.90;;;17.50;68.25;95675.66;5028381;28;20506;-55
2022/10/12 09:12:27;;;;;;;41.97;21.87;;;17.20;99.90;;;17.59;67.66;95673.03;5028689;28;20447;-58
2022/10/12 09:14:59;;;;;;;35.97;20.50;;;17.30;99.90;;;17.64;68.07;95671.53;5028154;28;20472;-54
2022/10/12 09:17:29;;;;;;;47.47;22.67;;;17.40;99.90;;;17.68;67.81;95674.72;5025483;28;20997;-57
2022/10/12 09:20:03;;;;;;;41.73;22.80;;;17.40;99.90;;;17.65;67.56;95672.38;5028065;28;20511;-55
2022/10/12 09:22:32;;;;;;;31.53;19.77;;;17.40;99.90;;;17.67;67.09;95673.84;5027139;28;20444;-58
2022/10/12 09:24:59;;;;;;;37.37;19.57;;;17.40;99.90;;;17.73;66.52;95669.72;5028066;28;20556;-57
2022/10/12 09:27:29;;;;;;;39.50;22.00;;;17.50;99.90;;;17.72;67.25;95671.56;5027985;28;20465;-59
2022/10/12 09:29:59;;;;;;;33.43;20.80;;;17.50;99.90;;;17.76;67.40;95664.06;5024795;28;20577;-57
2022/10/12 09:33:06;;;;;;;32.37;19.47;;;17.50;99.90;;;17.81;66.94;95675.03;5027122;28;20452;-54
2022/10/12 09:35:34;;;;;;;33.57;20.00;;;17.60;99.90;;;17.86;66.87;95670.06;5026359;28;20867;-56
2022/10/12 09:38:02;;;;;;;32.10;18.70;;;17.60;99.90;;;17.96;66.90;95674.44;5027962;28;20463;-54
2022/10/12 09:40:31;;;;;;;31.23;17.17;;;17.70;99.90;;;18.01;66.46;95672.09;5027670;28;20473;-56
2022/10/12 09:42:59;;;;;;;24.47;16.27;;;17.70;99.90;;;18.05;65.74;95673.44;5027616;28;20514;-55
2022/10/12 09:45:27;;;;;;;20.80;13.13;;;17.80;99.90;;;18.05;66.06;95671.59;5026452;28;20479;-57
2022/10/12 09:48:15;;;;;;;19.27;13.77;;;17.80;99.90;;;18.03;66.00;95676.28;5028035;28;20456;-55
2022/10/12 09:50:46;;;;;;;18.43;13.83;;;17.80;99.90;;;18.02;65.75;95669.28;5023974;28;20547;-56
2022/10/12 09:53:27;;;;;;;19.67;11.97;;;17.80;99.90;;;18.07;65.12;95666.13;5027828;28;20444;-57
2022/10/12 09:56:04;;;;;;;23.13;11.80;;;17.80;99.90;;;18.07;64.99;95663.44;5024657;28;20953;-56
2022/10/12 09:58:33;;;;;;;22.20;14.03;;;17.80;99.90;;;18.00;64.95;95671.28;5027638;28;20445;-56
2022/10/12 10:01:20;;;;;;;26.53;13.57;;;17.80;99.90;;;17.87;64.98;95666.41;5027362;28;20480;-55
2022/10/12 10:04:06;;;;;;;17.73;13.37;;;17.70;99.90;;;17.85;65.43;95668.41;5022907;28;20459;-55
2022/10/12 10:06:34;;;;;;;24.63;13.53;;;17.70;99.90;;;17.94;65.26;95671.09;5024921;28;20539;-56
2022/10/12 10:09:03;;;;;;;20.23;14.53;;;17.70;99.90;;;17.99;65.18;95658.97;5027093;28;20538;-57
2022/10/12 10:11:31;;;;;;;29.20;16.40;;;17.70;99.90;;;18.05;65.42;95660.13;5023574;28;20455;-57
2022/10/12 10:14:00;;;;;;;26.80;16.50;;;17.80;99.90;;;18.09;65.24;95664.09;5027081;28;20480;-56
2022/10/12 10:16:28;;;;;;;22.30;15.53;;;17.80;99.90;;;18.13;64.97;95657.47;5027323;28;20549;-55